Time;durP1;ratioP1;P1;durP2;ratioP2;P2;SDS_P1;SDS_P2;PMS_P1;PMS_P2;Temp;Humidity;BMP_temperature;BMP_pressure;BME280_temperature;BME280_humidity;BME280_pressure;Samples;Min_cycle;Max_cycle;Signal;HPM_P1;HPM_P2
2022/05/30 00:01:21;;;;;;;1.50;1.50;;;;;;;;;;5075996;28;20402;-62
2022/05/30 00:03:47;;;;;;;1.47;1.37;;;;;;;;;;5076274;28;20414;-62
2022/05/30 00:06:15;;;;;;;1.50;1.40;;;;;;;;;;5057259;28;20475;-62
2022/05/30 00:08:41;;;;;;;1.60;1.60;;;;;;;;;;5075787;28;20461;-62
2022/05/30 00:11:08;;;;;;;3.53;1.60;;;;;;;;;;5074665;28;20411;-62
2022/05/30 00:13:35;;;;;;;2.73;1.70;;;;;;;;;;5075786;28;20972;-62
2022/05/30 00:16:04;;;;;;;3.50;2.37;;;;;;;;;;5075767;28;20410;-62
2022/05/30 00:18:30;;;;;;;2.10;1.50;;;;;;;;;;5075759;28;20410;-62
2022/05/30 00:20:58;;;;;;;1.63;1.53;;;;;;;;;;5075676;28;20966;-61
2022/05/30 00:23:24;;;;;;;1.23;1.23;;;;;;;;;;5058046;28;20459;-62
2022/05/30 00:25:50;;;;;;;1.60;1.60;;;;;;;;;;5075718;28;20414;-62
2022/05/30 00:28:16;;;;;;;2.00;1.90;;;;;;;;;;5075592;28;20469;-62
2022/05/30 00:30:43;;;;;;;2.30;1.53;;;;;;;;;;5075830;28;20555;-62
2022/05/30 00:33:09;;;;;;;3.33;1.87;;;;;;;;;;5074313;28;20417;-62
2022/05/30 00:35:35;;;;;;;1.37;1.37;;;;;;;;;;5075422;28;20417;-62
2022/05/30 00:38:01;;;;;;;3.47;1.30;;;;;;;;;;5075401;28;20409;-62
2022/05/30 00:40:27;;;;;;;1.50;1.50;;;;;;;;;;5075422;28;20788;-63
2022/05/30 00:42:53;;;;;;;1.77;1.40;;;;;;;;;;5075414;28;20767;-62
2022/05/30 00:45:19;;;;;;;5.50;1.80;;;;;;;;;;5075272;28;20470;-62
2022/05/30 00:47:46;;;;;;;1.80;1.80;;;;;;;;;;5075311;28;20466;-63
2022/05/30 00:50:12;;;;;;;1.87;1.77;;;;;;;;;;5075244;28;20411;-63
2022/05/30 00:52:43;;;;;;;1.67;1.57;;;;;;;;;;5075163;28;20417;-63
2022/05/30 00:55:21;;;;;;;2.00;1.70;;;;;;;;;;5073785;28;20814;-63
2022/05/30 00:57:48;;;;;;;1.90;1.80;;;;;;;;;;5074945;28;20435;-63
2022/05/30 01:00:17;;;;;;;4.30;2.00;;;;;;;;;;5074948;28;20402;-63
2022/05/30 01:02:43;;;;;;;1.67;1.57;;;;;;;;;;5075212;28;20418;-62
2022/05/30 01:07:57;;;;;;;2.07;1.77;;;;;;;;;;5074981;28;20461;-63
2022/05/30 01:10:24;;;;;;;1.77;1.70;;;;;;;;;;5074811;28;20903;-63
2022/05/30 01:12:55;;;;;;;1.90;1.80;;;;;;;;;;5074757;28;20414;-62
2022/05/30 01:15:22;;;;;;;2.40;1.60;;;;;;;;;;5074607;28;20836;-63
2022/05/30 01:17:57;;;;;;;1.87;1.80;;;;;;;;;;5073560;28;20512;-62
2022/05/30 01:20:28;;;;;;;3.73;1.83;;;;;;;;;;5073271;28;20824;-63
2022/05/30 01:22:59;;;;;;;2.07;1.87;;;;;;;;;;5074582;28;20505;-62
2022/05/30 01:26:00;;;;;;;1.47;1.47;;;;;;;;;;5074499;28;20467;-63
2022/05/30 01:28:26;;;;;;;2.87;1.50;;;;;;;;;;5012639;28;20480;-62
2022/05/30 01:30:53;;;;;;;1.80;1.80;;;;;;;;;;5062089;28;20426;-62
2022/05/30 01:33:28;;;;;;;1.43;1.43;;;;;;;;;;5074375;28;20464;-62
2022/05/30 01:35:54;;;;;;;1.90;1.80;;;;;;;;;;5074228;28;20418;-62
2022/05/30 01:38:21;;;;;;;2.80;1.80;;;;;;;;;;5074221;28;20895;-62
2022/05/30 01:40:47;;;;;;;6.73;2.10;;;;;;;;;;5074451;28;20410;-62
2022/05/30 01:43:13;;;;;;;1.97;1.83;;;;;;;;;;5074161;28;20399;-62
2022/05/30 01:45:39;;;;;;;1.60;1.60;;;;;;;;;;5074045;28;20515;-62
2022/05/30 01:48:05;;;;;;;2.30;1.57;;;;;;;;;;5074010;28;20473;-62
2022/05/30 01:50:31;;;;;;;2.10;1.97;;;;;;;;;;5073940;28;20826;-62
2022/05/30 01:52:57;;;;;;;1.60;1.60;;;;;;;;;;5074092;28;20402;-62
2022/05/30 01:55:23;;;;;;;1.80;1.70;;;;;;;;;;5073858;28;20413;-62
2022/05/30 01:57:49;;;;;;;1.90;1.80;;;;;;;;;;5073893;28;20410;-62
2022/05/30 02:00:15;;;;;;;1.57;1.57;;;;;;;;;;5073848;28;20405;-62
2022/05/30 02:02:41;;;;;;;2.07;1.97;;;;;;;;;;5073789;28;20402;-62
2022/05/30 02:05:08;;;;;;;1.90;1.80;;;;;;;;;;5073717;28;20409;-62
2022/05/30 02:07:34;;;;;;;1.90;1.90;;;;;;;;;;5073560;28;20453;-62
2022/05/30 02:10:00;;;;;;;2.07;1.80;;;;;;;;;;5055677;28;20426;-62
2022/05/30 02:12:26;;;;;;;2.50;2.30;;;;;;;;;;5073644;28;20408;-63
2022/05/30 02:14:52;;;;;;;3.70;2.00;;;;;;;;;;5073633;28;20918;-62
2022/05/30 02:17:18;;;;;;;3.90;2.40;;;;;;;;;;5073610;28;20417;-63
2022/05/30 02:19:45;;;;;;;2.47;2.27;;;;;;;;;;5073526;28;20422;-62
2022/05/30 02:22:12;;;;;;;2.10;2.00;;;;;;;;;;5073582;28;20885;-63
2022/05/30 02:24:38;;;;;;;2.50;2.40;;;;;;;;;;5073523;28;20415;-62
2022/05/30 02:27:05;;;;;;;1.87;1.77;;;;;;;;;;5073475;28;20465;-62
2022/05/30 02:29:31;;;;;;;2.27;2.17;;;;;;;;;;5073513;28;20733;-63
2022/05/30 02:31:57;;;;;;;2.73;2.13;;;;;;;;;;5073459;28;20417;-62
2022/05/30 02:37:07;;;;;;;2.60;2.47;;;;;;;;;;5073634;28;20429;-62
2022/05/30 02:39:33;;;;;;;2.23;2.10;;;;;;;;;;5073363;28;20398;-63
2022/05/30 02:41:59;;;;;;;2.20;2.10;;;;;;;;;;5073590;28;20421;-62
2022/05/30 02:44:26;;;;;;;5.03;1.97;;;;;;;;;;5073225;28;20493;-62
2022/05/30 02:46:53;;;;;;;2.37;2.27;;;;;;;;;;5073233;28;20978;-63
2022/05/30 02:49:20;;;;;;;2.90;2.50;;;;;;;;;;5073271;28;20945;-62
2022/05/30 02:51:46;;;;;;;8.20;2.90;;;;;;;;;;5073243;28;20399;-62
2022/05/30 02:54:15;;;;;;;2.20;2.10;;;;;;;;;;5055286;28;20810;-62
2022/05/30 02:56:41;;;;;;;3.00;2.87;;;;;;;;;;5073183;28;20489;-62
2022/05/30 02:59:08;;;;;;;2.80;2.60;;;;;;;;;;5073196;28;20414;-62
2022/05/30 03:01:34;;;;;;;3.60;2.80;;;;;;;;;;5055216;28;20433;-62
2022/05/30 03:04:07;;;;;;;3.00;2.40;;;;;;;;;;5073148;28;20418;-62
2022/05/30 03:06:33;;;;;;;6.27;3.13;;;;;;;;;;5073257;28;20406;-62
2022/05/30 03:08:59;;;;;;;2.90;2.70;;;;;;;;;;5073119;28;20420;-62
2022/05/30 03:11:25;;;;;;;3.17;2.97;;;;;;;;;;5055114;28;20391;-62
2022/05/30 03:13:52;;;;;;;3.73;2.57;;;;;;;;;;5073003;28;20417;-62
2022/05/30 03:16:18;;;;;;;3.47;3.17;;;;;;;;;;5072968;28;20433;-62
2022/05/30 03:18:44;;;;;;;3.40;3.10;;;;;;;;;;5072951;28;20500;-62
2022/05/30 03:21:10;;;;;;;3.17;2.87;;;;;;;;;;5072992;28;20501;-62
2022/05/30 03:23:37;;;;;;;3.50;3.20;;;;;;;;;;5054979;28;20826;-62
2022/05/30 03:26:03;;;;;;;3.03;2.93;;;;;;;;;;5055349;28;20420;-63
2022/05/30 03:28:31;;;;;;;7.90;2.80;;;;;;;;;;5072905;28;20504;-62
2022/05/30 03:30:57;;;;;;;4.23;3.70;;;;;;;;;;5072845;28;20394;-62
2022/05/30 03:33:23;;;;;;;3.80;3.50;;;;;;;;;;5072893;28;20416;-62
2022/05/30 03:35:49;;;;;;;3.20;2.97;;;;;;;;;;5072842;28;20971;-62
2022/05/30 03:38:15;;;;;;;5.03;3.80;;;;;;;;;;5072791;28;20410;-62
2022/05/30 03:40:41;;;;;;;4.10;3.90;;;;;;;;;;5055930;28;20452;-62
2022/05/30 03:43:09;;;;;;;5.20;3.47;;;;;;;;;;5076419;28;20776;-62
2022/05/30 03:45:39;;;;;;;3.57;3.27;;;;;;;;;;5076346;28;20461;-62
2022/05/30 03:48:05;;;;;;;3.47;2.93;;;;;;;;;;5076241;28;20826;-62
2022/05/30 03:50:31;;;;;;;4.23;3.83;;;;;;;;;;5076308;28;20456;-62
2022/05/30 03:53:04;;;;;;;4.00;3.70;;;;;;;;;;5058424;28;20410;-62
2022/05/30 03:55:31;;;;;;;3.93;3.60;;;;;;;;;;5076256;28;20455;-62
2022/05/30 03:57:57;;;;;;;16.93;13.07;;;;;;;;;;5076208;28;20409;-62
2022/05/30 04:00:23;;;;;;;6.20;5.00;;;;;;;;;;5076080;28;20406;-62
2022/05/30 04:02:50;;;;;;;13.47;10.30;;;;;;;;;;5076059;28;20459;-62
2022/05/30 04:05:17;;;;;;;5.43;5.03;;;;;;;;;;5075989;28;20409;-62
2022/05/30 04:07:43;;;;;;;5.27;4.90;;;;;;;;;;5057866;28;20984;-62
2022/05/30 04:10:09;;;;;;;4.07;3.97;;;;;;;;;;5075977;28;20417;-61
2022/05/30 04:12:36;;;;;;;3.73;3.33;;;;;;;;;;5075907;28;20915;-62
2022/05/30 04:15:02;;;;;;;3.63;3.43;;;;;;;;;;5075838;28;20485;-62
2022/05/30 04:17:28;;;;;;;4.73;3.47;;;;;;;;;;5057768;28;20406;-61
2022/05/30 04:19:54;;;;;;;3.40;3.23;;;;;;;;;;5075814;28;20422;-62
2022/05/30 04:22:21;;;;;;;3.10;3.10;;;;;;;;;;5075653;28;20419;-62
2022/05/30 04:24:47;;;;;;;5.27;4.77;;;;;;;;;;5075867;28;20432;-62
2022/05/30 04:27:13;;;;;;;6.43;4.77;;;;;;;;;;5075606;28;20470;-62
2022/05/30 04:29:39;;;;;;;6.77;6.27;;;;;;;;;;5075669;28;20805;-62
2022/05/30 04:32:06;;;;;;;5.27;4.87;;;;;;;;;;5075555;28;20394;-62
2022/05/30 04:34:33;;;;;;;6.10;5.53;;;;;;;;;;5075470;28;20928;-62
2022/05/30 04:36:59;;;;;;;5.40;5.10;;;;;;;;;;5075438;28;20401;-62
2022/05/30 04:39:26;;;;;;;5.00;4.80;;;;;;;;;;5075357;28;20410;-62
2022/05/30 04:41:52;;;;;;;6.47;5.40;;;;;;;;;;5075444;28;20865;-62
2022/05/30 04:44:18;;;;;;;5.80;5.33;;;;;;;;;;5075139;28;20405;-62
2022/05/30 04:46:50;;;;;;;6.03;5.63;;;;;;;;;;5075194;28;20438;-63
2022/05/30 04:49:16;;;;;;;6.50;6.10;;;;;;;;;;5075263;28;20900;-63
2022/05/30 04:51:42;;;;;;;6.27;5.87;;;;;;;;;;5075103;28;20493;-62
2022/05/30 04:54:08;;;;;;;5.60;5.30;;;;;;;;;;5075203;28;20952;-63
2022/05/30 04:56:34;;;;;;;6.53;6.13;;;;;;;;;;5075037;28;20403;-63
2022/05/30 04:59:00;;;;;;;6.67;6.37;;;;;;;;;;5075057;28;20425;-64
2022/05/30 05:01:27;;;;;;;5.70;5.40;;;;;;;;;;5074991;28;20398;-63
2022/05/30 05:03:53;;;;;;;6.20;5.90;;;;;;;;;;5074904;28;20403;-62
2022/05/30 05:06:20;;;;;;;5.90;5.50;;;;;;;;;;5056831;28;20446;-64
2022/05/30 05:08:53;;;;;;;6.33;5.73;;;;;;;;;;5074606;28;20466;-62
2022/05/30 05:11:24;;;;;;;5.63;5.33;;;;;;;;;;5075072;28;20489;-64
2022/05/30 05:13:57;;;;;;;6.07;5.50;;;;;;;;;;5074682;28;20413;-62
2022/05/30 05:16:26;;;;;;;5.83;5.53;;;;;;;;;;5074677;28;20914;-66
2022/05/30 05:18:52;;;;;;;6.00;5.30;;;;;;;;;;5074606;28;20469;-64
2022/05/30 05:21:22;;;;;;;6.10;5.80;;;;;;;;;;5074472;28;20439;-62
2022/05/30 05:23:49;;;;;;;6.93;6.40;;;;;;;;;;5074347;28;20746;-64
2022/05/30 05:26:15;;;;;;;5.90;5.57;;;;;;;;;;5074353;28;20406;-64
2022/05/30 05:28:41;;;;;;;5.87;5.47;;;;;;;;;;5074311;28;20477;-63
2022/05/30 05:31:08;;;;;;;5.63;5.30;;;;;;;;;;5074376;28;20800;-64
2022/05/30 05:33:34;;;;;;;6.27;5.77;;;;;;;;;;5074338;28;20408;-64
2022/05/30 05:36:00;;;;;;;6.13;5.63;;;;;;;;;;5074167;28;20506;-64
2022/05/30 05:38:25;;;;;;;4.97;4.70;;;;;;;;;;5074128;28;20493;-63
2022/05/30 05:40:52;;;;;;;5.87;5.10;;;;;;;;;;5074197;28;20889;-64
2022/05/30 05:43:18;;;;;;;5.70;5.20;;;;;;;;;;5074074;28;20427;-65
2022/05/30 05:45:46;;;;;;;7.07;5.50;;;;;;;;;;5073955;28;20879;-63
2022/05/30 05:48:12;;;;;;;8.20;5.70;;;;;;;;;;5073841;28;20465;-64
2022/05/30 05:50:39;;;;;;;5.33;5.10;;;;;;;;;;5074135;28;20511;-62
2022/05/30 05:53:06;;;;;;;8.80;5.03;;;;;;;;;;5074194;28;20402;-64
2022/05/30 05:55:32;;;;;;;5.67;5.37;;;;;;;;;;5073895;28;20406;-64
2022/05/30 05:57:58;;;;;;;7.83;6.03;;;;;;;;;;5055838;28;20422;-63
2022/05/30 06:00:24;;;;;;;5.90;5.40;;;;;;;;;;5073712;28;20432;-63
2022/05/30 06:02:50;;;;;;;7.13;5.13;;;;;;;;;;5073487;28;20868;-63
2022/05/30 06:05:16;;;;;;;5.30;4.90;;;;;;;;;;5073765;28;20406;-64
2022/05/30 06:07:43;;;;;;;8.07;5.97;;;;;;;;;;5073693;28;20472;-64
2022/05/30 06:10:11;;;;;;;5.80;5.40;;;;;;;;;;5073659;28;20425;-65
2022/05/30 06:12:45;;;;;;;8.17;5.20;;;;;;;;;;5073905;28;20776;-66
2022/05/30 06:15:15;;;;;;;8.53;5.17;;;;;;;;;;5073577;28;20402;-63
2022/05/30 06:17:42;;;;;;;5.17;4.83;;;;;;;;;;5073611;28;20406;-64
2022/05/30 06:20:08;;;;;;;5.40;5.20;;;;;;;;;;5073490;28;20410;-65
2022/05/30 06:22:34;;;;;;;9.07;4.63;;;;;;;;;;5073467;28;20452;-65
2022/05/30 06:25:00;;;;;;;4.80;4.50;;;;;;;;;;5073459;28;20410;-65
2022/05/30 06:27:26;;;;;;;5.13;4.83;;;;;;;;;;5073375;28;20464;-64
2022/05/30 06:29:52;;;;;;;4.40;4.17;;;;;;;;;;5073441;28;20480;-65
2022/05/30 06:32:19;;;;;;;5.00;4.70;;;;;;;;;;5073445;28;20497;-65
2022/05/30 06:34:45;;;;;;;5.27;4.77;;;;;;;;;;5073357;28;20429;-64
2022/05/30 06:37:11;;;;;;;7.47;4.60;;;;;;;;;;5073356;28;20403;-65
2022/05/30 06:39:39;;;;;;;6.00;4.13;;;;;;;;;;5073285;28;20411;-65
2022/05/30 06:42:10;;;;;;;4.13;3.83;;;;;;;;;;5073296;28;20468;-64
2022/05/30 06:44:36;;;;;;;6.20;5.03;;;;;;;;;;5073208;28;20815;-64
2022/05/30 06:47:03;;;;;;;4.60;4.33;;;;;;;;;;5055057;28;20920;-63
2022/05/30 06:49:29;;;;;;;8.63;5.27;;;;;;;;;;5073140;28;20406;-63
2022/05/30 06:51:55;;;;;;;5.43;4.90;;;;;;;;;;5073200;28;20899;-64
2022/05/30 06:54:21;;;;;;;4.63;4.30;;;;;;;;;;5073122;28;20991;-63
2022/05/30 06:59:32;;;;;;;5.10;4.80;;;;;;;;;;5073203;28;20393;-64
2022/05/30 07:02:01;;;;;;;4.50;4.13;;;;;;;;;;5073169;28;20434;-65
2022/05/30 07:04:31;;;;;;;5.57;5.13;;;;;;;;;;5073009;28;20456;-64
2022/05/30 07:06:57;;;;;;;5.80;4.70;;;;;;;;;;5054858;28;20414;-63
2022/05/30 07:09:22;;;;;;;4.33;4.23;;;;;;;;;;5073068;28;20426;-64
2022/05/30 07:11:49;;;;;;;4.40;4.00;;;;;;;;;;5054918;28;20410;-64
2022/05/30 07:14:16;;;;;;;5.57;5.07;;;;;;;;;;5072977;28;20898;-64
2022/05/30 07:16:42;;;;;;;5.53;5.20;;;;;;;;;;5076052;28;20409;-65
2022/05/30 07:19:08;;;;;;;5.10;4.70;;;;;;;;;;5076950;28;20916;-65
2022/05/30 07:21:34;;;;;;;5.43;4.40;;;;;;;;;;5076730;28;20414;-65
2022/05/30 07:24:00;;;;;;;5.77;4.20;;;;;;;;;;5076708;28;20418;-64
2022/05/30 07:26:27;;;;;;;4.40;4.10;;;;;;;;;;5076886;28;20406;-65
2022/05/30 07:28:53;;;;;;;5.00;4.00;;;;;;;;;;5076698;28;20553;-64
2022/05/30 07:31:20;;;;;;;4.07;3.70;;;;;;;;;;5076752;28;20405;-62
2022/05/30 07:33:48;;;;;;;4.00;3.80;;;;;;;;;;5076610;28;20417;-64
2022/05/30 07:36:16;;;;;;;4.10;3.87;;;;;;;;;;5076498;28;20410;-65
2022/05/30 07:38:42;;;;;;;3.97;3.60;;;;;;;;;;5076494;28;20409;-64
2022/05/30 07:41:08;;;;;;;3.30;3.10;;;;;;;;;;5076504;28;20414;-65
2022/05/30 07:43:36;;;;;;;3.20;3.10;;;;;;;;;;5075452;28;20815;-64
2022/05/30 07:46:07;;;;;;;4.00;3.80;;;;;;;;;;5076189;28;20523;-64
2022/05/30 07:48:34;;;;;;;3.83;3.53;;;;;;;;;;5076341;28;20491;-65
2022/05/30 07:51:00;;;;;;;3.60;3.40;;;;;;;;;;5076259;28;20947;-65
2022/05/30 07:53:27;;;;;;;3.70;3.40;;;;;;;;;;5076351;28;20438;-65
2022/05/30 07:55:53;;;;;;;3.40;3.27;;;;;;;;;;5076201;28;20417;-64
2022/05/30 07:58:19;;;;;;;3.20;3.00;;;;;;;;;;5076157;28;20407;-66
2022/05/30 08:00:48;;;;;;;3.70;3.40;;;;;;;;;;5076163;28;20399;-65
2022/05/30 08:03:16;;;;;;;3.90;3.60;;;;;;;;;;5076166;28;20505;-65
2022/05/30 08:05:43;;;;;;;4.20;3.80;;;;;;;;;;5075951;28;20420;-65
2022/05/30 08:08:09;;;;;;;3.30;3.20;;;;;;;;;;5075976;28;20502;-64
2022/05/30 08:10:35;;;;;;;3.47;3.30;;;;;;;;;;5076019;28;20920;-65
2022/05/30 08:13:02;;;;;;;3.23;3.03;;;;;;;;;;5075982;28;20415;-65
2022/05/30 08:15:28;;;;;;;3.40;2.80;;;;;;;;;;5075905;28;20398;-65
2022/05/30 08:17:55;;;;;;;4.57;3.10;;;;;;;;;;5076124;28;20728;-65
2022/05/30 08:20:21;;;;;;;3.43;3.00;;;;;;;;;;5075817;28;20500;-65
2022/05/30 08:22:47;;;;;;;2.60;2.50;;;;;;;;;;5075865;28;20410;-65
2022/05/30 08:25:15;;;;;;;2.40;2.40;;;;;;;;;;5075728;28;20407;-65
2022/05/30 08:27:44;;;;;;;2.93;2.70;;;;;;;;;;5075126;28;20468;-64
2022/05/30 08:30:11;;;;;;;4.00;2.47;;;;;;;;;;5075586;28;20413;-65
2022/05/30 08:32:40;;;;;;;2.70;2.50;;;;;;;;;;5075587;28;20397;-65
2022/05/30 08:35:07;;;;;;;6.37;2.50;;;;;;;;;;5074198;28;20963;-65
2022/05/30 08:37:34;;;;;;;2.30;2.20;;;;;;;;;;5075426;28;20414;-66
2022/05/30 08:42:49;;;;;;;2.40;2.30;;;;;;;;;;5075671;28;20768;-65
2022/05/30 08:45:17;;;;;;;2.40;2.20;;;;;;;;;;5075038;28;20476;-64
2022/05/30 08:47:46;;;;;;;2.23;2.13;;;;;;;;;;5074026;28;20506;-64
2022/05/30 08:50:22;;;;;;;2.30;2.20;;;;;;;;;;5075139;28;20500;-65
2022/05/30 08:53:10;;;;;;;3.80;2.43;;;;;;;;;;5075128;28;20408;-64
2022/05/30 08:55:44;;;;;;;2.53;2.33;;;;;;;;;;5074558;28;20425;-65
2022/05/30 08:58:29;;;;;;;2.30;2.10;;;;;;;;;;5074976;28;20461;-65
2022/05/30 09:00:57;;;;;;;3.83;2.20;;;;;;;;;;5074982;28;20492;-64
2022/05/30 09:03:29;;;;;;;3.70;2.20;;;;;;;;;;5074945;28;20406;-64
2022/05/30 09:06:00;;;;;;;3.43;1.83;;;;;;;;;;5074897;28;20456;-64
2022/05/30 09:08:31;;;;;;;1.80;1.70;;;;;;;;;;5066586;28;20569;-64
2022/05/30 09:11:00;;;;;;;7.13;1.90;;;;;;;;;;5074829;28;20427;-65
2022/05/30 09:13:33;;;;;;;1.90;1.80;;;;;;;;;;5056750;28;20782;-66
2022/05/30 09:16:05;;;;;;;1.33;1.23;;;;;;;;;;5056677;28;20409;-65
2022/05/30 09:18:31;;;;;;;1.50;1.40;;;;;;;;;;5074615;28;20425;-66
2022/05/30 09:20:57;;;;;;;1.47;1.40;;;;;;;;;;5074508;28;20421;-65
2022/05/30 09:23:24;;;;;;;3.80;1.50;;;;;;;;;;5074541;28;20438;-65
2022/05/30 09:26:07;;;;;;;3.77;1.50;;;;;;;;;;5074556;28;20455;-65
2022/05/30 09:28:35;;;;;;;1.53;1.43;;;;;;;;;;5074369;28;20978;-64
2022/05/30 09:31:01;;;;;;;1.50;1.40;;;;;;;;;;5074412;28;20493;-65
2022/05/30 09:33:32;;;;;;;1.33;1.23;;;;;;;;;;5074363;28;20827;-65
2022/05/30 09:36:18;;;;;;;1.40;1.30;;;;;;;;;;5074386;28;20408;-65
2022/05/30 09:39:04;;;;;;;1.50;1.50;;;;;;;;;;5055484;28;20513;-64
2022/05/30 09:41:46;;;;;;;1.70;1.50;;;;;;;;;;5074259;28;20412;-64
2022/05/30 09:44:19;;;;;;;2.67;1.77;;;;;;;;;;5074184;28;20879;-65
2022/05/30 09:46:53;;;;;;;2.10;1.57;;;;;;;;;;5054200;28;20435;-65
2022/05/30 09:49:26;;;;;;;1.80;1.70;;;;;;;;;;5054435;28;20419;-65
2022/05/30 09:51:53;;;;;;;1.20;1.20;;;;;;;;;;5054231;28;20392;-66
2022/05/30 09:54:31;;;;;;;2.60;1.83;;;;;;;;;;5054063;28;20400;-65
2022/05/30 09:57:15;;;;;;;3.43;1.30;;;;;;;;;;5054050;28;20396;-65
2022/05/30 09:59:43;;;;;;;1.50;1.40;;;;;;;;;;5054017;28;20845;-65
2022/05/30 10:02:29;;;;;;;3.57;1.57;;;;;;;;;;5053836;28;20399;-64
2022/05/30 10:05:06;;;;;;;1.50;1.37;;;;;;;;;;5053869;28;20821;-65
2022/05/30 10:07:33;;;;;;;1.83;1.73;;;;;;;;;;5053762;28;20470;-65
2022/05/30 10:10:01;;;;;;;1.00;1.00;;;;;;;;;;5053793;28;20444;-66
2022/05/30 10:12:40;;;;;;;1.30;1.30;;;;;;;;;;5053458;28;20410;-64
2022/05/30 10:15:23;;;;;;;1.40;1.30;;;;;;;;;;5053751;28;20399;-64
2022/05/30 10:17:49;;;;;;;6.23;1.40;;;;;;;;;;5053681;28;20503;-64
2022/05/30 10:20:21;;;;;;;1.43;1.33;;;;;;;;;;5035673;28;20419;-65
2022/05/30 10:28:39;;;;;;;1.50;1.50;;;;;;;;;;5053527;28;20468;-66
2022/05/30 10:31:24;;;;;;;1.30;1.30;;;;;;;;;;5053510;28;21001;-65
2022/05/30 10:33:56;;;;;;;1.50;1.50;;;;;;;;;;5035573;28;20408;-65
2022/05/30 10:36:37;;;;;;;3.03;1.80;;;;;;;;;;5053318;28;20433;-65
2022/05/30 10:39:31;;;;;;;1.70;1.60;;;;;;;;;;5053385;28;20408;-65
2022/05/30 10:42:01;;;;;;;1.10;1.10;;;;;;;;;;5053264;28;20460;-64
2022/05/30 10:44:29;;;;;;;1.80;1.13;;;;;;;;;;5054511;28;20430;-64
2022/05/30 10:47:09;;;;;;;1.90;1.20;;;;;;;;;;5073297;28;20417;-63
2022/05/30 10:49:37;;;;;;;1.00;1.00;;;;;;;;;;5074999;28;20427;-64
2022/05/30 10:52:19;;;;;;;1.30;1.30;;;;;;;;;;5080008;28;20884;-65
2022/05/30 10:54:51;;;;;;;1.40;1.30;;;;;;;;;;5079824;28;20498;-65
2022/05/30 10:57:36;;;;;;;1.23;1.23;;;;;;;;;;5079867;28;20415;-64
2022/05/30 11:00:04;;;;;;;3.60;1.10;;;;;;;;;;5079927;28;20403;-65
2022/05/30 11:02:38;;;;;;;1.50;1.50;;;;;;;;;;5080014;28;20442;-66
2022/05/30 11:05:18;;;;;;;3.77;1.60;;;;;;;;;;5079663;28;20466;-65
2022/05/30 11:08:05;;;;;;;1.60;1.30;;;;;;;;;;5079714;28;20472;-64
2022/05/30 11:10:52;;;;;;;1.50;1.40;;;;;;;;;;5049233;28;20911;-63
2022/05/30 11:13:34;;;;;;;2.00;1.57;;;;;;;;;;5061630;28;20439;-64
2022/05/30 11:16:09;;;;;;;2.23;1.40;;;;;;;;;;5079641;28;20410;-65
2022/05/30 11:19:14;;;;;;;2.53;1.27;;;;;;;;;;5079672;28;20437;-65
2022/05/30 11:21:47;;;;;;;3.20;1.30;;;;;;;;;;5037432;28;20820;-63
2022/05/30 11:24:14;;;;;;;1.90;1.37;;;;;;;;;;5020926;28;20959;-63
2022/05/30 11:26:43;;;;;;;1.00;1.00;;;;;;;;;;5050059;28;20530;-64
2022/05/30 11:29:09;;;;;;;1.30;1.20;;;;;;;;;;5079091;28;20485;-65
2022/05/30 11:31:42;;;;;;;5.90;1.23;;;;;;;;;;5079002;28;20406;-64
2022/05/30 11:34:08;;;;;;;4.30;1.60;;;;;;;;;;5079456;28;20438;-64
2022/05/30 11:36:44;;;;;;;1.27;1.20;;;;;;;;;;5079504;28;20909;-63
2022/05/30 11:39:13;;;;;;;1.37;1.37;;;;;;;;;;5061414;28;20417;-65
2022/05/30 11:41:39;;;;;;;1.30;1.30;;;;;;;;;;5061470;28;20428;-64
2022/05/30 11:44:08;;;;;;;1.33;1.23;;;;;;;;;;5079376;28;20900;-64
2022/05/30 11:46:40;;;;;;;1.17;1.07;;;;;;;;;;5079276;28;20553;-64
2022/05/30 11:49:17;;;;;;;1.47;1.37;;;;;;;;;;5079395;28;20821;-64
2022/05/30 11:51:55;;;;;;;1.40;1.40;;;;;;;;;;5079421;28;20413;-63
2022/05/30 11:54:40;;;;;;;1.03;1.03;;;;;;;;;;5079416;28;20413;-65
2022/05/30 11:57:08;;;;;;;0.97;0.97;;;;;;;;;;5079335;28;20391;-64
2022/05/30 11:59:49;;;;;;;1.30;1.20;;;;;;;;;;5061395;28;20512;-64
2022/05/30 12:02:34;;;;;;;2.73;1.30;;;;;;;;;;5076330;28;20402;-64
2022/05/30 12:05:13;;;;;;;3.13;1.57;;;;;;;;;;5076159;28;20419;-65
2022/05/30 12:07:42;;;;;;;2.47;1.20;;;;;;;;;;5076010;28;20549;-64
2022/05/30 12:10:23;;;;;;;2.90;1.27;;;;;;;;;;5076031;28;20408;-64
2022/05/30 12:13:04;;;;;;;1.20;1.20;;;;;;;;;;5058049;28;20432;-64
2022/05/30 12:15:45;;;;;;;1.77;1.40;;;;;;;;;;5076148;28;20409;-65
2022/05/30 12:24:19;;;;;;;1.20;1.10;;;;;;;;;;5013470;28;20427;-64
2022/05/30 12:26:48;;;;;;;1.33;1.23;;;;;;;;;;5054010;28;20951;-64
2022/05/30 12:29:33;;;;;;;3.10;1.77;;;;;;;;;;5091118;28;20492;-64
2022/05/30 12:32:17;;;;;;;1.10;1.10;;;;;;;;;;5075645;28;20445;-64
2022/05/30 12:35:01;;;;;;;1.20;1.10;;;;;;;;;;5075370;28;20910;-64
2022/05/30 12:37:41;;;;;;;1.00;0.97;;;;;;;;;;5075318;28;20443;-66
2022/05/30 12:40:12;;;;;;;5.87;1.37;;;;;;;;;;5075113;28;20886;-65
2022/05/30 12:42:42;;;;;;;1.30;1.20;;;;;;;;;;5075351;28;20488;-65
2022/05/30 12:45:38;;;;;;;1.40;1.30;;;;;;;;;;5075106;28;20523;-65
2022/05/30 12:48:22;;;;;;;1.00;1.00;;;;;;;;;;5066682;28;20475;-65
2022/05/30 12:50:51;;;;;;;1.40;1.30;;;;;;;;;;5075157;28;20427;-65
2022/05/30 12:53:17;;;;;;;1.03;1.03;;;;;;;;;;5075112;28;20879;-65
2022/05/30 12:55:45;;;;;;;1.27;1.17;;;;;;;;;;5075087;28;20417;-64
2022/05/30 12:58:19;;;;;;;1.47;1.10;;;;;;;;;;5075043;28;20438;-64
2022/05/30 13:00:49;;;;;;;1.10;1.10;;;;;;;;;;5090612;28;20426;-64
2022/05/30 13:03:31;;;;;;;1.57;1.30;;;;;;;;;;5074993;28;20481;-65
2022/05/30 13:06:11;;;;;;;1.33;1.20;;;;;;;;;;5074824;28;20423;-65
2022/05/30 13:08:51;;;;;;;1.20;1.10;;;;;;;;;;5074769;28;20506;-64
2022/05/30 13:11:27;;;;;;;1.37;1.20;;;;;;;;;;5074819;28;20413;-65
2022/05/30 13:13:56;;;;;;;2.23;1.20;;;;;;;;;;5073507;28;20466;-65
2022/05/30 13:16:28;;;;;;;2.47;1.20;;;;;;;;;;5074554;28;20466;-64
2022/05/30 13:18:55;;;;;;;1.23;1.23;;;;;;;;;;5073493;28;20504;-64
2022/05/30 13:21:24;;;;;;;3.63;1.27;;;;;;;;;;5074517;28;20429;-64
2022/05/30 13:23:50;;;;;;;1.70;1.60;;;;;;;;;;5074886;28;20394;-65
2022/05/30 13:26:18;;;;;;;1.07;1.00;;;;;;;;;;5074439;28;20483;-64
2022/05/30 13:28:45;;;;;;;1.30;1.23;;;;;;;;;;5074310;28;20829;-64
2022/05/30 13:31:13;;;;;;;1.10;1.10;;;;;;;;;;5074684;28;20397;-65
2022/05/30 13:33:47;;;;;;;0.90;0.90;;;;;;;;;;5074418;28;20768;-66
2022/05/30 13:36:21;;;;;;;1.20;1.10;;;;;;;;;;5074128;28;20504;-64
2022/05/30 13:38:51;;;;;;;1.47;1.13;;;;;;;;;;5089851;28;20455;-64
2022/05/30 13:41:28;;;;;;;1.60;1.33;;;;;;;;;;5074541;28;20413;-65
2022/05/30 13:43:56;;;;;;;1.40;1.30;;;;;;;;;;5056385;28;20413;-65
2022/05/30 13:46:23;;;;;;;4.40;1.00;;;;;;;;;;5073965;28;20967;-65
2022/05/30 13:48:49;;;;;;;1.57;1.37;;;;;;;;;;5074334;28;20460;-65
2022/05/30 13:51:15;;;;;;;2.90;1.40;;;;;;;;;;5073972;28;20749;-65
2022/05/30 13:53:47;;;;;;;3.83;1.37;;;;;;;;;;5074026;28;20450;-65
2022/05/30 13:56:17;;;;;;;1.50;1.40;;;;;;;;;;5073904;28;20409;-66
2022/05/30 13:58:45;;;;;;;4.93;1.17;;;;;;;;;;5073930;28;20409;-66
2022/05/30 14:01:14;;;;;;;4.83;1.47;;;;;;;;;;5089456;28;20445;-65
2022/05/30 14:03:46;;;;;;;1.93;1.00;;;;;;;;;;5073249;28;20417;-64
2022/05/30 14:06:20;;;;;;;2.63;1.30;;;;;;;;;;5073517;28;20837;-65
2022/05/30 14:08:46;;;;;;;1.20;1.10;;;;;;;;;;5073814;28;20487;-66
2022/05/30 14:11:12;;;;;;;1.30;1.20;;;;;;;;;;5073016;28;20449;-65
2022/05/30 14:13:49;;;;;;;1.00;1.00;;;;;;;;;;5073654;28;20452;-65
2022/05/30 14:16:34;;;;;;;6.30;1.10;;;;;;;;;;5073624;28;20430;-65
2022/05/30 14:19:24;;;;;;;1.43;1.23;;;;;;;;;;5073909;28;20859;-65
2022/05/30 14:21:54;;;;;;;4.70;1.67;;;;;;;;;;5068409;28;20428;-65
2022/05/30 14:24:26;;;;;;;2.53;1.33;;;;;;;;;;5073197;28;20407;-65
2022/05/30 14:26:53;;;;;;;4.30;1.13;;;;;;;;;;5073442;28;20808;-65
2022/05/30 14:29:24;;;;;;;1.93;1.40;;;;;;;;;;5055358;28;20476;-65
2022/05/30 14:32:02;;;;;;;1.20;1.10;;;;;;;;;;5055563;28;20773;-65
2022/05/30 14:34:39;;;;;;;2.13;1.47;;;;;;;;;;5073231;28;20775;-65
2022/05/30 14:37:16;;;;;;;1.03;1.03;;;;;;;;;;5073266;28;20500;-65
2022/05/30 14:39:47;;;;;;;2.00;1.07;;;;;;;;;;5073199;28;20405;-65
2022/05/30 14:42:18;;;;;;;1.57;1.00;;;;;;;;;;5073217;28;20897;-65
2022/05/30 14:44:50;;;;;;;1.30;1.30;;;;;;;;;;5073115;28;20450;-65
2022/05/30 14:47:25;;;;;;;3.03;1.20;;;;;;;;;;5073235;28;20411;-64
2022/05/30 14:50:00;;;;;;;1.00;1.00;;;;;;;;;;5072966;28;20428;-64
2022/05/30 14:52:30;;;;;;;1.30;1.20;;;;;;;;;;5073139;28;20402;-64
2022/05/30 14:54:56;;;;;;;3.43;1.10;;;;;;;;;;5073257;28;20500;-65
2022/05/30 14:57:25;;;;;;;1.60;1.50;;;;;;;;;;5073490;28;20548;-64
2022/05/30 14:59:51;;;;;;;1.00;1.00;;;;;;;;;;5073302;28;20441;-64
2022/05/30 15:05:07;;;;;;;1.47;1.30;;;;;;;;;;5073157;28;20480;-64
2022/05/30 15:07:34;;;;;;;3.70;1.50;;;;;;;;;;5072982;28;20476;-64
2022/05/30 15:10:00;;;;;;;1.50;1.40;;;;;;;;;;5073077;28;20489;-64
2022/05/30 15:12:26;;;;;;;1.87;1.73;;;;;;;;;;5054844;28;20448;-65
2022/05/30 15:14:52;;;;;;;0.93;0.93;;;;;;;;;;5072928;28;20408;-63
2022/05/30 15:17:18;;;;;;;1.43;1.10;;;;;;;;;;5072952;28;20953;-66
2022/05/30 15:19:44;;;;;;;1.03;1.03;;;;;;;;;;5054887;28;20919;-66
2022/05/30 15:22:13;;;;;;;1.23;1.13;;;;;;;;;;5072942;28;20421;-64
2022/05/30 15:24:43;;;;;;;1.30;1.20;;;;;;;;;;5072847;28;20477;-63